Dairyland, Wisconsin
Current Conditions -  °F | °C
As of 11:15 AM on Friday 31 Oct 2014 (Local Time) from KRZN Reporting Station
Scattered Clouds Scattered Clouds  
Wind Chill: 24°   Ceiling: Unl
Heat Index: 32°   Visibility: 10mi
Dew Point: 18°   Wind: 10mph
Humidity: 57%   Direction: 60°ENE
Pressure: 30.55"   Gusts: 16mph
Location:  46.1107°N, 92.219°W
Report Text: KRZN 311615Z AUTO 06009G14KT 10SM SCT030 00/M08 A3055 RMK AO2 T00001076
Loading
Personal Weather Stations






























Interactive Weather Map
Tropical Storm Tracking
New forecast layout! Learn more

10-Day Weather Forecast

Advertisements
Track Severe Weather on mobile